createdAt,value
2023-08-15T00:01:16.298Z,8.43
2023-08-15T00:04:18.578Z,8.88
2023-08-15T00:07:21.137Z,9.27
2023-08-15T00:10:23.551Z,10.50
2023-08-15T00:13:25.824Z,9.20
2023-08-15T00:16:28.185Z,7.97
2023-08-15T00:19:30.678Z,8.63
2023-08-15T00:22:32.936Z,8.77
2023-08-15T00:25:35.258Z,9.05
2023-08-15T00:28:37.475Z,9.05
2023-08-15T00:31:40.680Z,8.60
2023-08-15T00:34:42.925Z,9.05
2023-08-15T00:37:45.262Z,9.60
2023-08-15T00:40:47.581Z,8.25
2023-08-15T00:43:54.493Z,9.00
2023-08-15T00:46:56.922Z,8.87
2023-08-15T00:50:00.553Z,8.73
2023-08-15T00:53:04.170Z,8.60
2023-08-15T00:56:08.344Z,9.50
2023-08-15T00:59:10.594Z,8.77
2023-08-15T01:02:13.389Z,8.17
2023-08-15T01:05:17.277Z,10.65
2023-08-15T01:08:19.640Z,8.73
2023-08-15T01:11:21.914Z,9.95
2023-08-15T01:14:30.774Z,9.25
2023-08-15T01:17:38.298Z,8.60
2023-08-15T01:20:41.618Z,10.90
2023-08-15T01:23:47.163Z,8.02
2023-08-15T01:26:49.480Z,9.25
2023-08-15T01:29:51.706Z,9.85
2023-08-15T01:33:02.935Z,10.60
2023-08-15T01:36:22.586Z,8.98
2023-08-15T01:39:30.076Z,10.68
2023-08-15T01:42:33.016Z,13.80
2023-08-15T01:45:36.247Z,11.45
2023-08-15T01:48:42.797Z,10.67
2023-08-15T01:51:47.274Z,10.80
2023-08-15T01:54:49.580Z,10.68
2023-08-15T01:57:53.169Z,12.18
2023-08-15T02:00:55.504Z,9.75
2023-08-15T02:03:57.873Z,10.50
2023-08-15T02:07:00.329Z,11.77
2023-08-15T02:10:02.747Z,11.15
2023-08-15T02:13:05.128Z,13.43
2023-08-15T02:16:07.703Z,9.18
2023-08-15T02:19:10.090Z,10.30
2023-08-15T02:22:12.768Z,9.45
2023-08-15T02:25:15.185Z,10.50
2023-08-15T02:28:17.471Z,10.35
2023-08-15T02:31:19.811Z,10.30
2023-08-15T02:34:22.151Z,9.87
2023-08-15T02:37:24.388Z,11.00
2023-08-15T02:40:30.544Z,10.30
2023-08-15T02:43:33.072Z,9.65
2023-08-15T02:46:35.518Z,10.00
2023-08-15T02:49:37.854Z,10.03
2023-08-15T02:52:40.241Z,11.23
2023-08-15T02:55:42.484Z,11.57
2023-08-15T02:58:45.150Z,10.63
2023-08-15T03:01:48.561Z,10.98
2023-08-15T03:04:50.949Z,12.60
2023-08-15T03:07:53.685Z,10.90
2023-08-15T03:10:56.058Z,14.43
2023-08-15T03:13:59.598Z,11.18
2023-08-15T03:17:03.442Z,10.55
2023-08-15T03:20:07.344Z,12.37
2023-08-15T03:23:10.044Z,11.60
2023-08-15T03:26:13.226Z,12.70
2023-08-15T03:29:15.954Z,13.40
2023-08-15T03:32:18.185Z,11.80
2023-08-15T03:35:22.732Z,14.17
2023-08-15T03:38:25.445Z,13.23
2023-08-15T03:41:28.199Z,10.82
2023-08-15T03:44:30.469Z,11.93
2023-08-15T03:47:33.674Z,11.60
2023-08-15T03:50:37.331Z,12.43
2023-08-15T03:53:39.624Z,11.30
2023-08-15T03:56:42.274Z,11.95
2023-08-15T03:59:44.966Z,15.18
2023-08-15T04:02:48.464Z,12.82
2023-08-15T04:05:50.872Z,11.83
2023-08-15T04:08:53.102Z,14.65
2023-08-15T04:11:55.379Z,14.02
2023-08-15T04:14:57.628Z,14.65
2023-08-15T04:18:00.081Z,13.52
2023-08-15T04:21:11.388Z,14.10
2023-08-15T04:24:13.786Z,13.48
2023-08-15T04:27:22.791Z,13.25
2023-08-15T04:30:26.124Z,13.95
2023-08-15T04:33:28.420Z,11.18
2023-08-15T04:36:31.214Z,13.33
2023-08-15T04:39:33.486Z,14.38
2023-08-15T04:42:36.605Z,12.57
2023-08-15T04:45:42.188Z,11.93
2023-08-15T04:48:47.469Z,12.55
2023-08-15T04:51:49.899Z,12.13
2023-08-15T04:54:52.430Z,13.07
2023-08-15T04:57:54.754Z,12.65
2023-08-15T05:00:57.333Z,11.93
2023-08-15T05:04:01.320Z,11.38
2023-08-15T05:07:05.404Z,13.63
2023-08-15T05:10:09.503Z,10.65
2023-08-15T05:13:14.783Z,12.07
2023-08-15T05:16:17.092Z,11.70
2023-08-15T05:19:19.485Z,11.27
2023-08-15T05:22:21.716Z,11.97
2023-08-15T05:25:24.084Z,14.82
2023-08-15T05:28:26.515Z,12.98
2023-08-15T05:31:29.225Z,10.60
2023-08-15T05:34:31.492Z,11.95
2023-08-15T05:37:33.767Z,11.97
2023-08-15T05:40:36.099Z,13.48
2023-08-15T05:43:38.428Z,10.75
2023-08-15T05:46:40.709Z,12.13
2023-08-15T05:49:43.994Z,9.90
2023-08-15T05:52:46.264Z,14.53
2023-08-15T05:55:48.551Z,10.57
2023-08-15T05:58:50.797Z,10.05
2023-08-15T06:01:53.067Z,11.95
2023-08-15T06:04:55.278Z,10.52
2023-08-15T06:07:57.970Z,10.37
2023-08-15T06:11:00.259Z,13.25
2023-08-15T06:14:02.555Z,12.88
2023-08-15T06:17:06.242Z,13.80
2023-08-15T06:20:09.154Z,10.95
2023-08-15T06:23:11.431Z,9.30
2023-08-15T06:26:13.861Z,9.55
2023-08-15T06:29:16.070Z,10.02
2023-08-15T06:32:29.037Z,8.95
2023-08-15T06:35:31.745Z,8.75
2023-08-15T06:38:34.063Z,7.87
2023-08-15T06:41:36.287Z,11.88
2023-08-15T06:44:38.877Z,7.60
2023-08-15T06:47:41.262Z,10.85
2023-08-15T06:50:44.095Z,8.40
2023-08-15T06:53:54.151Z,9.77
2023-08-15T06:56:56.595Z,10.20
2023-08-15T06:59:58.932Z,9.30
2023-08-15T07:03:01.284Z,10.05
2023-08-15T07:06:05.264Z,9.27
2023-08-15T07:09:08.073Z,9.60
2023-08-15T07:12:11.049Z,10.65
2023-08-15T07:15:13.393Z,11.05
2023-08-15T07:18:15.685Z,14.95
2023-08-15T07:21:21.130Z,12.18
2023-08-15T07:24:24.469Z,12.13
2023-08-15T07:27:26.923Z,11.88
2023-08-15T07:30:30.172Z,9.23
2023-08-15T07:33:32.918Z,9.30
2023-08-15T07:36:35.768Z,8.55
2023-08-15T07:39:38.072Z,7.37
2023-08-15T07:42:40.427Z,8.13
2023-08-15T07:45:42.799Z,9.65
2023-08-15T07:48:45.521Z,6.53
2023-08-15T07:51:47.881Z,7.38
2023-08-15T07:54:50.139Z,7.30
2023-08-15T07:57:52.492Z,7.47
2023-08-15T08:00:54.758Z,7.03
2023-08-15T08:03:57.156Z,6.50
2023-08-15T08:06:59.552Z,10.23
2023-08-15T08:10:02.135Z,6.80
2023-08-15T08:13:07.644Z,6.68
2023-08-15T08:16:10.076Z,9.23
2023-08-15T08:19:12.349Z,6.80
2023-08-15T08:22:14.864Z,7.10
2023-08-15T08:25:25.084Z,6.47
2023-08-15T08:28:27.528Z,6.20
2023-08-15T08:31:29.845Z,6.03
2023-08-15T08:34:32.242Z,6.28
2023-08-15T08:37:34.583Z,6.93
2023-08-15T08:40:37.039Z,6.50
2023-08-15T08:43:40.924Z,6.28
2023-08-15T08:46:45.168Z,6.22
2023-08-15T08:49:49.227Z,6.35
2023-08-15T08:52:51.930Z,6.82
2023-08-15T08:55:54.280Z,6.10
2023-08-15T08:59:02.590Z,5.78
2023-08-15T09:02:06.295Z,6.80
2023-08-15T09:05:10.362Z,5.53
2023-08-15T09:08:12.770Z,7.53
2023-08-15T09:11:15.162Z,8.27
2023-08-15T09:14:18.575Z,6.93
2023-08-15T09:17:25.225Z,5.47
2023-08-15T09:20:28.151Z,6.43
2023-08-15T09:23:32.320Z,6.63
2023-08-15T09:26:36.551Z,6.40
2023-08-15T09:29:38.989Z,5.93
2023-08-15T09:32:43.006Z,6.93
2023-08-15T09:35:57.873Z,7.90
2023-08-15T09:39:01.595Z,7.43
2023-08-15T09:42:04.194Z,6.40
2023-08-15T09:45:08.552Z,6.95
2023-08-15T09:48:11.633Z,5.55
2023-08-15T09:51:19.334Z,5.82
2023-08-15T09:54:22.811Z,7.20
2023-08-15T09:57:26.922Z,7.17
2023-08-15T10:00:37.116Z,5.30
2023-08-15T10:03:46.190Z,4.97
2023-08-15T10:07:08.029Z,5.50
2023-08-15T10:10:16.591Z,6.00
2023-08-15T10:13:25.618Z,6.10
2023-08-15T10:16:28.999Z,7.22
2023-08-15T10:19:34.563Z,5.13
2023-08-15T10:22:36.858Z,5.15
2023-08-15T10:25:42.793Z,6.05
2023-08-15T10:28:47.448Z,6.63
2023-08-15T10:31:59.941Z,5.03
2023-08-15T10:35:04.045Z,6.53
2023-08-15T10:38:15.288Z,6.05
2023-08-15T10:41:21.528Z,6.35
2023-08-15T10:44:24.210Z,6.57
2023-08-15T10:47:26.453Z,5.53
2023-08-15T10:50:28.894Z,6.10
2023-08-15T10:53:31.232Z,5.38
2023-08-15T10:56:35.827Z,7.60
2023-08-15T10:59:38.182Z,7.03
2023-08-15T11:02:40.739Z,8.02
2023-08-15T11:05:43.476Z,6.78
2023-08-15T11:08:54.953Z,5.78
2023-08-15T11:12:06.081Z,6.68
2023-08-15T11:15:10.570Z,7.50
2023-08-15T11:18:21.742Z,5.93
2023-08-15T11:21:29.171Z,7.18
2023-08-15T11:24:32.501Z,11.15
2023-08-15T11:27:46.394Z,6.13
2023-08-15T11:30:48.804Z,9.20
2023-08-15T11:33:53.108Z,6.38
2023-08-15T11:36:55.594Z,5.90
2023-08-15T11:39:58.196Z,5.85
2023-08-15T11:43:01.351Z,6.25
2023-08-15T11:46:05.745Z,6.73
2023-08-15T11:49:16.621Z,6.35
2023-08-15T11:52:20.694Z,5.18
2023-08-15T11:55:24.182Z,5.05
2023-08-15T11:58:30.181Z,6.07
2023-08-15T12:01:42.861Z,6.17
2023-08-15T12:04:48.310Z,6.57
2023-08-15T12:07:51.270Z,5.95
2023-08-15T12:10:58.370Z,5.78
2023-08-15T12:14:00.662Z,6.65
2023-08-15T12:17:03.022Z,5.90
2023-08-15T12:20:07.823Z,5.53
2023-08-15T12:23:18.758Z,7.13
2023-08-15T12:26:27.108Z,5.80
2023-08-15T12:30:11.734Z,6.32
2023-08-15T12:32:52.084Z,6.80
2023-08-15T12:35:54.522Z,5.43
2023-08-15T12:38:56.788Z,6.15
2023-08-15T12:41:59.580Z,6.10
2023-08-15T12:45:01.833Z,6.28
2023-08-15T12:48:04.403Z,6.80
2023-08-15T12:51:06.681Z,5.43
2023-08-15T12:54:09.007Z,7.32
2023-08-15T12:57:11.493Z,6.22
2023-08-15T13:00:14.543Z,5.70
2023-08-15T13:03:16.962Z,5.50
2023-08-15T13:06:19.481Z,6.50
2023-08-15T13:09:21.873Z,6.28
2023-08-15T13:12:24.335Z,7.05
2023-08-15T13:15:27.079Z,6.65
2023-08-15T13:18:29.431Z,6.93
2023-08-15T13:21:31.822Z,6.00
2023-08-15T13:24:34.191Z,6.50
2023-08-15T13:27:36.509Z,7.47
2023-08-15T13:30:38.903Z,6.60
2023-08-15T13:33:42.643Z,6.27
2023-08-15T13:36:47.211Z,7.95
2023-08-15T13:39:49.473Z,5.80
2023-08-15T13:42:51.785Z,6.45
2023-08-15T13:45:54.101Z,5.97
2023-08-15T13:48:56.598Z,7.53
2023-08-15T13:51:58.836Z,6.93
2023-08-15T13:55:01.182Z,5.97
2023-08-15T13:58:04.104Z,6.40
2023-08-15T14:01:07.803Z,7.50
2023-08-15T14:04:10.021Z,9.50
2023-08-15T14:07:12.324Z,6.30
2023-08-15T14:10:15.098Z,10.75
2023-08-15T14:13:17.581Z,9.10
2023-08-15T14:16:19.902Z,7.82
2023-08-15T14:19:22.275Z,7.27
2023-08-15T14:22:24.839Z,6.78
2023-08-15T14:25:34.680Z,6.93
2023-08-15T14:28:36.937Z,10.35
2023-08-15T14:31:39.257Z,7.18
2023-08-15T14:34:41.521Z,7.97
2023-08-15T14:37:43.890Z,6.40
2023-08-15T14:40:46.504Z,6.25
2023-08-15T14:43:49.894Z,10.98
2023-08-15T14:46:52.146Z,7.88
2023-08-15T14:49:54.461Z,6.03
2023-08-15T14:52:56.754Z,10.30
2023-08-15T14:55:59.807Z,6.95
2023-08-15T14:59:02.027Z,7.30
2023-08-15T15:02:04.467Z,7.85
2023-08-15T15:05:07.670Z,6.77
2023-08-15T15:08:16.515Z,8.82
2023-08-15T15:11:25.416Z,8.10
2023-08-15T15:14:28.560Z,10.55
2023-08-15T15:17:30.810Z,10.65
2023-08-15T15:20:33.193Z,7.73
2023-08-15T15:23:35.500Z,8.57
2023-08-15T15:26:37.824Z,10.75
2023-08-15T15:29:40.150Z,7.65
2023-08-15T15:32:42.519Z,10.38
2023-08-15T15:35:44.852Z,6.37
2023-08-15T15:38:47.343Z,8.35
2023-08-15T15:41:49.627Z,9.65
2023-08-15T15:44:52.058Z,6.13
2023-08-15T15:47:54.402Z,6.75
2023-08-15T15:50:56.783Z,8.10
2023-08-15T15:53:59.030Z,7.03
2023-08-15T15:57:01.318Z,7.88
2023-08-15T16:00:03.993Z,8.73
2023-08-15T16:03:08.538Z,7.68
2023-08-15T16:06:10.898Z,7.10
2023-08-15T16:09:14.819Z,7.57
2023-08-15T16:12:17.055Z,7.97
2023-08-15T16:15:19.606Z,8.45
2023-08-15T16:18:21.873Z,7.57
2023-08-15T16:21:24.239Z,8.07
2023-08-15T16:24:26.507Z,8.25
2023-08-15T16:27:28.834Z,10.65
2023-08-15T16:30:31.097Z,6.53
2023-08-15T16:33:33.428Z,7.07
2023-08-15T16:36:36.052Z,8.73
2023-08-15T16:39:39.360Z,7.55
2023-08-15T16:42:41.667Z,7.22
2023-08-15T16:45:46.750Z,7.15
2023-08-15T16:48:49.284Z,7.25
2023-08-15T16:51:51.561Z,8.03
2023-08-15T16:54:53.785Z,7.43
2023-08-15T16:57:58.405Z,6.13
2023-08-15T17:01:00.674Z,5.80
2023-08-15T17:04:03.387Z,6.72
2023-08-15T17:07:05.776Z,6.73
2023-08-15T17:10:08.504Z,8.55
2023-08-15T17:13:10.826Z,7.35
2023-08-15T17:16:13.223Z,6.03
2023-08-15T17:19:15.459Z,7.68
2023-08-15T17:22:17.775Z,6.93
2023-08-15T17:25:20.005Z,6.22
2023-08-15T17:28:22.298Z,7.70
2023-08-15T17:31:24.628Z,5.97
2023-08-15T17:34:26.957Z,6.88
2023-08-15T17:37:29.200Z,8.50
2023-08-15T17:40:33.727Z,5.85
2023-08-15T17:43:37.390Z,8.10
2023-08-15T17:46:39.728Z,7.85
2023-08-15T17:49:42.038Z,6.03
2023-08-15T17:52:44.370Z,7.23
2023-08-15T17:55:46.584Z,6.57
2023-08-15T17:58:52.491Z,8.02
2023-08-15T18:01:55.002Z,7.43
2023-08-15T18:04:57.369Z,5.85
2023-08-15T18:07:59.633Z,6.40
2023-08-15T18:11:03.154Z,6.45
2023-08-15T18:14:07.501Z,7.55
2023-08-15T18:17:10.369Z,8.10
2023-08-15T18:20:12.600Z,6.70
2023-08-15T18:23:14.926Z,7.53
2023-08-15T18:26:17.226Z,8.88
2023-08-15T18:29:19.516Z,6.55
2023-08-15T18:32:22.176Z,7.47
2023-08-15T18:35:24.834Z,7.78
2023-08-15T18:38:31.247Z,7.63
2023-08-15T18:41:33.599Z,7.72
2023-08-15T18:44:35.824Z,6.95
2023-08-15T18:47:39.139Z,8.10
2023-08-15T18:50:45.407Z,7.85
2023-08-15T18:53:47.805Z,8.13
2023-08-15T18:56:50.137Z,7.47
2023-08-15T18:59:53.793Z,7.90
2023-08-15T19:02:56.125Z,8.63
2023-08-15T19:05:58.733Z,6.78
2023-08-15T19:09:00.979Z,7.30
2023-08-15T19:12:04.741Z,6.68
2023-08-15T19:15:07.627Z,8.20
2023-08-15T19:18:09.979Z,7.35
2023-08-15T19:21:14.214Z,8.07
2023-08-15T19:24:18.979Z,7.67
2023-08-15T19:27:22.048Z,9.07
2023-08-15T19:30:25.535Z,7.43
2023-08-15T19:33:27.882Z,7.43
2023-08-15T19:36:30.212Z,8.75
2023-08-15T19:39:32.527Z,7.97
2023-08-15T19:42:39.122Z,7.55
2023-08-15T19:45:41.415Z,7.57
2023-08-15T19:48:43.743Z,8.73
2023-08-15T19:51:45.984Z,7.20
2023-08-15T19:54:48.261Z,6.53
2023-08-15T19:57:50.606Z,7.95
2023-08-15T20:00:52.970Z,7.22
2023-08-15T20:03:55.205Z,6.68
2023-08-15T20:06:57.488Z,8.93
2023-08-15T20:10:10.901Z,8.13
2023-08-15T20:13:14.684Z,9.85
2023-08-15T20:16:16.966Z,11.30
2023-08-15T20:19:20.163Z,11.30
2023-08-15T20:22:23.102Z,11.90
2023-08-15T20:25:27.756Z,9.30
2023-08-15T20:28:30.021Z,10.65
2023-08-15T20:31:32.466Z,10.50
2023-08-15T20:34:34.899Z,9.82
2023-08-15T20:37:37.803Z,12.80
2023-08-15T20:40:40.304Z,10.97
2023-08-15T20:43:42.825Z,10.15
2023-08-15T20:46:45.130Z,8.13
2023-08-15T20:49:48.249Z,9.60
2023-08-15T20:52:51.735Z,8.23
2023-08-15T20:55:54.025Z,10.73
2023-08-15T20:58:56.661Z,9.50
2023-08-15T21:02:01.035Z,10.50
2023-08-15T21:05:04.276Z,9.05
2023-08-15T21:08:06.792Z,8.63
2023-08-15T21:11:09.309Z,12.27
2023-08-15T21:14:11.632Z,11.93
2023-08-15T21:17:13.863Z,13.05
2023-08-15T21:20:16.195Z,15.43
2023-08-15T21:23:18.549Z,13.70
2023-08-15T21:26:20.840Z,13.33
2023-08-15T21:29:23.068Z,12.82
2023-08-15T21:32:25.356Z,10.10
2023-08-15T21:35:27.654Z,12.05
2023-08-15T21:38:30.266Z,14.45
2023-08-15T21:41:32.515Z,12.57
2023-08-15T21:44:34.858Z,10.75
2023-08-15T21:47:37.243Z,14.38
2023-08-15T21:50:39.708Z,10.57
2023-08-15T21:53:42.000Z,11.85
2023-08-15T21:56:44.371Z,10.37
2023-08-15T21:59:46.705Z,12.82
2023-08-15T22:02:49.328Z,11.85
2023-08-15T22:05:51.641Z,14.02
2023-08-15T22:08:53.985Z,13.35
2023-08-15T22:11:56.229Z,11.17
2023-08-15T22:14:58.603Z,11.85
2023-08-15T22:18:18.832Z,13.00
2023-08-15T22:21:21.522Z,10.40
2023-08-15T22:24:23.996Z,11.57
2023-08-15T22:27:26.560Z,9.27
2023-08-15T22:30:28.810Z,9.43
2023-08-15T22:33:31.083Z,10.60
2023-08-15T22:36:34.101Z,9.98
2023-08-15T22:39:36.384Z,9.57
2023-08-15T22:42:38.594Z,8.23
2023-08-15T22:45:42.994Z,9.32
2023-08-15T22:48:45.305Z,11.93
2023-08-15T22:51:47.666Z,11.15
2023-08-15T22:54:49.961Z,11.25
2023-08-15T22:57:52.244Z,11.13
2023-08-15T23:00:58.160Z,10.55
2023-08-15T23:04:00.800Z,8.70
2023-08-15T23:07:03.134Z,9.10
2023-08-15T23:10:06.545Z,8.93
2023-08-15T23:13:08.840Z,8.90
2023-08-15T23:16:11.667Z,10.05
2023-08-15T23:19:13.999Z,8.35
2023-08-15T23:22:16.348Z,8.77
2023-08-15T23:25:18.595Z,10.70
2023-08-15T23:28:20.946Z,8.53
2023-08-15T23:31:32.859Z,10.27
2023-08-15T23:34:35.912Z,9.48
2023-08-15T23:37:38.732Z,8.55
2023-08-15T23:40:41.138Z,9.80
2023-08-15T23:43:43.366Z,8.50
2023-08-15T23:46:46.859Z,8.60
2023-08-15T23:49:49.256Z,9.93
2023-08-15T23:52:51.528Z,10.38
2023-08-15T23:55:53.729Z,10.73
2023-08-15T23:58:56.705Z,12.57
